sensor_id;sensor_type;location;lat;lon;timestamp;P1;durP1;ratioP1;P2;durP2;ratioP2
18435;SDS011;9346;52.006;4.720;2022-07-29T00:00:20;2.70;;;1.00;;
18435;SDS011;9346;52.006;4.720;2022-07-29T00:02:47;0.87;;;0.80;;
18435;SDS011;9346;52.006;4.720;2022-07-29T00:05:13;2.10;;;1.17;;
18435;SDS011;9346;52.006;4.720;2022-07-29T00:07:41;1.10;;;0.90;;
18435;SDS011;9346;52.006;4.720;2022-07-29T00:10:09;1.63;;;1.30;;
18435;SDS011;9346;52.006;4.720;2022-07-29T00:12:36;1.90;;;0.97;;
18435;SDS011;9346;52.006;4.720;2022-07-29T00:15:05;2.43;;;0.87;;
18435;SDS011;9346;52.006;4.720;2022-07-29T00:17:34;2.93;;;1.13;;
18435;SDS011;9346;52.006;4.720;2022-07-29T00:20:01;1.27;;;1.00;;
18435;SDS011;9346;52.006;4.720;2022-07-29T00:22:29;4.77;;;1.33;;
18435;SDS011;9346;52.006;4.720;2022-07-29T00:24:56;1.40;;;1.00;;
18435;SDS011;9346;52.006;4.720;2022-07-29T00:27:23;3.00;;;1.10;;
18435;SDS011;9346;52.006;4.720;2022-07-29T00:29:50;1.37;;;0.97;;
18435;SDS011;9346;52.006;4.720;2022-07-29T00:32:19;1.00;;;0.90;;
18435;SDS011;9346;52.006;4.720;2022-07-29T00:34:46;1.03;;;0.93;;
18435;SDS011;9346;52.006;4.720;2022-07-29T00:37:30;1.00;;;0.90;;
18435;SDS011;9346;52.006;4.720;2022-07-29T00:39:57;1.10;;;0.83;;
18435;SDS011;9346;52.006;4.720;2022-07-29T00:42:23;4.23;;;1.33;;
18435;SDS011;9346;52.006;4.720;2022-07-29T00:44:50;2.80;;;1.30;;
18435;SDS011;9346;52.006;4.720;2022-07-29T00:47:19;4.83;;;1.43;;
18435;SDS011;9346;52.006;4.720;2022-07-29T00:49:46;2.47;;;1.20;;
18435;SDS011;9346;52.006;4.720;2022-07-29T00:52:13;2.40;;;1.60;;
18435;SDS011;9346;52.006;4.720;2022-07-29T00:54:40;1.00;;;1.00;;
18435;SDS011;9346;52.006;4.720;2022-07-29T00:57:07;2.97;;;1.50;;
18435;SDS011;9346;52.006;4.720;2022-07-29T00:59:38;1.10;;;0.90;;
18435;SDS011;9346;52.006;4.720;2022-07-29T01:02:05;2.80;;;0.87;;
18435;SDS011;9346;52.006;4.720;2022-07-29T01:04:33;3.33;;;0.73;;
18435;SDS011;9346;52.006;4.720;2022-07-29T01:07:00;1.30;;;1.00;;
18435;SDS011;9346;52.006;4.720;2022-07-29T01:09:29;2.10;;;1.03;;
18435;SDS011;9346;52.006;4.720;2022-07-29T01:11:57;1.00;;;0.90;;
18435;SDS011;9346;52.006;4.720;2022-07-29T01:14:25;2.27;;;0.90;;
18435;SDS011;9346;52.006;4.720;2022-07-29T01:16:54;2.73;;;1.10;;
18435;SDS011;9346;52.006;4.720;2022-07-29T01:22:25;1.63;;;1.30;;
18435;SDS011;9346;52.006;4.720;2022-07-29T01:25:03;1.60;;;1.00;;
18435;SDS011;9346;52.006;4.720;2022-07-29T01:27:41;0.87;;;0.87;;
18435;SDS011;9346;52.006;4.720;2022-07-29T01:30:20;1.20;;;1.03;;
18435;SDS011;9346;52.006;4.720;2022-07-29T01:32:50;1.80;;;1.20;;
18435;SDS011;9346;52.006;4.720;2022-07-29T01:35:22;1.07;;;1.00;;
18435;SDS011;9346;52.006;4.720;2022-07-29T01:37:52;1.83;;;0.90;;
18435;SDS011;9346;52.006;4.720;2022-07-29T01:40:29;1.43;;;0.90;;
18435;SDS011;9346;52.006;4.720;2022-07-29T01:43:09;1.90;;;1.47;;
18435;SDS011;9346;52.006;4.720;2022-07-29T01:45:40;4.00;;;1.30;;
18435;SDS011;9346;52.006;4.720;2022-07-29T01:48:10;1.40;;;1.30;;
18435;SDS011;9346;52.006;4.720;2022-07-29T01:50:44;2.90;;;1.10;;
18435;SDS011;9346;52.006;4.720;2022-07-29T01:53:29;2.50;;;1.00;;
18435;SDS011;9346;52.006;4.720;2022-07-29T01:56:00;1.47;;;1.13;;
18435;SDS011;9346;52.006;4.720;2022-07-29T01:58:29;1.37;;;1.20;;
18435;SDS011;9346;52.006;4.720;2022-07-29T02:01:00;1.47;;;1.10;;
18435;SDS011;9346;52.006;4.720;2022-07-29T02:03:29;0.87;;;0.87;;
18435;SDS011;9346;52.006;4.720;2022-07-29T02:05:58;2.57;;;1.30;;
18435;SDS011;9346;52.006;4.720;2022-07-29T02:08:28;2.30;;;1.20;;
18435;SDS011;9346;52.006;4.720;2022-07-29T02:10:56;1.10;;;1.00;;
18435;SDS011;9346;52.006;4.720;2022-07-29T02:13:25;1.27;;;0.80;;
18435;SDS011;9346;52.006;4.720;2022-07-29T02:15:55;2.23;;;1.07;;
18435;SDS011;9346;52.006;4.720;2022-07-29T02:18:26;1.17;;;1.07;;
18435;SDS011;9346;52.006;4.720;2022-07-29T02:20:56;1.17;;;1.07;;
18435;SDS011;9346;52.006;4.720;2022-07-29T02:23:25;4.07;;;1.33;;
18435;SDS011;9346;52.006;4.720;2022-07-29T02:25:55;1.33;;;1.23;;
18435;SDS011;9346;52.006;4.720;2022-07-29T02:28:23;1.27;;;1.07;;
18435;SDS011;9346;52.006;4.720;2022-07-29T02:30:53;1.43;;;0.97;;
18435;SDS011;9346;52.006;4.720;2022-07-29T02:33:22;4.77;;;1.43;;
18435;SDS011;9346;52.006;4.720;2022-07-29T02:35:52;1.47;;;1.30;;
18435;SDS011;9346;52.006;4.720;2022-07-29T02:38:19;2.77;;;1.50;;
18435;SDS011;9346;52.006;4.720;2022-07-29T02:41:08;3.80;;;1.30;;
18435;SDS011;9346;52.006;4.720;2022-07-29T02:43:36;3.23;;;1.17;;
18435;SDS011;9346;52.006;4.720;2022-07-29T02:46:04;1.73;;;1.30;;
18435;SDS011;9346;52.006;4.720;2022-07-29T02:48:34;1.63;;;1.27;;
18435;SDS011;9346;52.006;4.720;2022-07-29T02:51:07;1.60;;;1.17;;
18435;SDS011;9346;52.006;4.720;2022-07-29T02:53:36;1.63;;;0.90;;
18435;SDS011;9346;52.006;4.720;2022-07-29T02:56:06;2.10;;;1.23;;
18435;SDS011;9346;52.006;4.720;2022-07-29T02:58:38;1.30;;;1.20;;
18435;SDS011;9346;52.006;4.720;2022-07-29T03:01:08;3.10;;;1.60;;
18435;SDS011;9346;52.006;4.720;2022-07-29T03:03:39;1.37;;;1.27;;
18435;SDS011;9346;52.006;4.720;2022-07-29T03:06:13;1.53;;;1.30;;
18435;SDS011;9346;52.006;4.720;2022-07-29T03:08:41;3.27;;;1.53;;
18435;SDS011;9346;52.006;4.720;2022-07-29T03:11:10;2.37;;;1.77;;
18435;SDS011;9346;52.006;4.720;2022-07-29T03:13:38;2.10;;;1.70;;
18435;SDS011;9346;52.006;4.720;2022-07-29T03:16:06;1.53;;;1.30;;
18435;SDS011;9346;52.006;4.720;2022-07-29T03:18:34;2.20;;;1.40;;
18435;SDS011;9346;52.006;4.720;2022-07-29T03:21:03;1.73;;;1.63;;
18435;SDS011;9346;52.006;4.720;2022-07-29T03:23:31;3.27;;;1.37;;
18435;SDS011;9346;52.006;4.720;2022-07-29T03:25:58;1.40;;;1.30;;
18435;SDS011;9346;52.006;4.720;2022-07-29T03:28:25;1.40;;;1.30;;
18435;SDS011;9346;52.006;4.720;2022-07-29T03:30:52;6.40;;;2.53;;
18435;SDS011;9346;52.006;4.720;2022-07-29T03:33:20;1.90;;;1.70;;
18435;SDS011;9346;52.006;4.720;2022-07-29T03:35:47;3.50;;;1.80;;
18435;SDS011;9346;52.006;4.720;2022-07-29T03:38:14;3.00;;;1.87;;
18435;SDS011;9346;52.006;4.720;2022-07-29T03:40:44;2.17;;;1.57;;
18435;SDS011;9346;52.006;4.720;2022-07-29T03:43:15;3.13;;;1.63;;
18435;SDS011;9346;52.006;4.720;2022-07-29T03:45:44;1.83;;;1.73;;
18435;SDS011;9346;52.006;4.720;2022-07-29T03:48:15;3.30;;;2.17;;
18435;SDS011;9346;52.006;4.720;2022-07-29T03:50:44;2.43;;;1.60;;
18435;SDS011;9346;52.006;4.720;2022-07-29T03:53:11;2.70;;;2.10;;
18435;SDS011;9346;52.006;4.720;2022-07-29T03:55:40;3.00;;;1.80;;
18435;SDS011;9346;52.006;4.720;2022-07-29T03:58:12;4.70;;;2.63;;
18435;SDS011;9346;52.006;4.720;2022-07-29T04:00:40;2.00;;;1.50;;
18435;SDS011;9346;52.006;4.720;2022-07-29T04:03:09;2.63;;;1.87;;
18435;SDS011;9346;52.006;4.720;2022-07-29T04:05:36;1.70;;;1.60;;
18435;SDS011;9346;52.006;4.720;2022-07-29T04:08:04;2.37;;;1.87;;
18435;SDS011;9346;52.006;4.720;2022-07-29T04:10:31;2.07;;;1.73;;
18435;SDS011;9346;52.006;4.720;2022-07-29T04:12:59;2.00;;;1.53;;
18435;SDS011;9346;52.006;4.720;2022-07-29T04:15:27;4.10;;;1.60;;
18435;SDS011;9346;52.006;4.720;2022-07-29T04:17:54;1.80;;;1.70;;
18435;SDS011;9346;52.006;4.720;2022-07-29T04:20:21;4.50;;;2.27;;
18435;SDS011;9346;52.006;4.720;2022-07-29T04:22:48;2.67;;;2.10;;
18435;SDS011;9346;52.006;4.720;2022-07-29T04:25:15;1.50;;;1.37;;
18435;SDS011;9346;52.006;4.720;2022-07-29T04:27:42;2.87;;;1.93;;
18435;SDS011;9346;52.006;4.720;2022-07-29T04:30:24;2.43;;;1.80;;
18435;SDS011;9346;52.006;4.720;2022-07-29T04:32:51;1.83;;;1.63;;
18435;SDS011;9346;52.006;4.720;2022-07-29T04:35:18;2.43;;;2.13;;
18435;SDS011;9346;52.006;4.720;2022-07-29T04:37:45;1.87;;;1.57;;
18435;SDS011;9346;52.006;4.720;2022-07-29T04:40:12;2.03;;;1.60;;
18435;SDS011;9346;52.006;4.720;2022-07-29T04:42:39;2.47;;;1.90;;
18435;SDS011;9346;52.006;4.720;2022-07-29T04:45:06;2.83;;;1.80;;
18435;SDS011;9346;52.006;4.720;2022-07-29T04:47:35;3.97;;;1.53;;
18435;SDS011;9346;52.006;4.720;2022-07-29T04:50:02;4.13;;;1.90;;
18435;SDS011;9346;52.006;4.720;2022-07-29T04:52:30;1.90;;;1.57;;
18435;SDS011;9346;52.006;4.720;2022-07-29T04:54:56;1.93;;;1.60;;
18435;SDS011;9346;52.006;4.720;2022-07-29T04:57:24;4.73;;;1.90;;
18435;SDS011;9346;52.006;4.720;2022-07-29T04:59:53;4.27;;;1.77;;
18435;SDS011;9346;52.006;4.720;2022-07-29T05:02:23;2.83;;;1.67;;
18435;SDS011;9346;52.006;4.720;2022-07-29T05:04:51;2.33;;;1.60;;
18435;SDS011;9346;52.006;4.720;2022-07-29T05:07:18;2.00;;;1.50;;
18435;SDS011;9346;52.006;4.720;2022-07-29T05:09:45;3.13;;;1.93;;
18435;SDS011;9346;52.006;4.720;2022-07-29T05:12:12;2.43;;;2.07;;
18435;SDS011;9346;52.006;4.720;2022-07-29T05:14:39;2.03;;;1.40;;
18435;SDS011;9346;52.006;4.720;2022-07-29T05:17:06;1.63;;;1.53;;
18435;SDS011;9346;52.006;4.720;2022-07-29T05:19:33;2.30;;;1.50;;
18435;SDS011;9346;52.006;4.720;2022-07-29T05:22:01;1.60;;;1.43;;
18435;SDS011;9346;52.006;4.720;2022-07-29T05:24:28;1.70;;;1.60;;
18435;SDS011;9346;52.006;4.720;2022-07-29T05:26:55;5.40;;;1.60;;
18435;SDS011;9346;52.006;4.720;2022-07-29T05:29:25;2.93;;;1.40;;
18435;SDS011;9346;52.006;4.720;2022-07-29T05:31:52;3.60;;;1.83;;
18435;SDS011;9346;52.006;4.720;2022-07-29T05:34:19;1.67;;;1.40;;
18435;SDS011;9346;52.006;4.720;2022-07-29T05:36:46;2.30;;;1.80;;
18435;SDS011;9346;52.006;4.720;2022-07-29T05:39:14;2.23;;;1.77;;
18435;SDS011;9346;52.006;4.720;2022-07-29T05:41:41;2.00;;;1.70;;
18435;SDS011;9346;52.006;4.720;2022-07-29T05:44:07;3.13;;;1.63;;
18435;SDS011;9346;52.006;4.720;2022-07-29T05:46:34;1.90;;;1.70;;
18435;SDS011;9346;52.006;4.720;2022-07-29T05:49:01;1.83;;;1.73;;
18435;SDS011;9346;52.006;4.720;2022-07-29T05:51:28;2.13;;;1.70;;
18435;SDS011;9346;52.006;4.720;2022-07-29T05:53:56;2.90;;;1.70;;
18435;SDS011;9346;52.006;4.720;2022-07-29T05:56:25;2.53;;;2.13;;
18435;SDS011;9346;52.006;4.720;2022-07-29T05:58:53;1.87;;;1.37;;
18435;SDS011;9346;52.006;4.720;2022-07-29T06:01:20;2.60;;;1.57;;
18435;SDS011;9346;52.006;4.720;2022-07-29T06:03:47;6.60;;;1.90;;
18435;SDS011;9346;52.006;4.720;2022-07-29T06:06:15;2.80;;;1.80;;
18435;SDS011;9346;52.006;4.720;2022-07-29T06:08:41;4.30;;;1.80;;
18435;SDS011;9346;52.006;4.720;2022-07-29T06:11:08;1.70;;;1.50;;
18435;SDS011;9346;52.006;4.720;2022-07-29T06:13:37;1.67;;;1.47;;
18435;SDS011;9346;52.006;4.720;2022-07-29T06:16:04;2.37;;;2.13;;
18435;SDS011;9346;52.006;4.720;2022-07-29T06:18:31;2.83;;;1.80;;
18435;SDS011;9346;52.006;4.720;2022-07-29T06:20:58;1.80;;;1.70;;
18435;SDS011;9346;52.006;4.720;2022-07-29T06:23:25;1.97;;;1.77;;
18435;SDS011;9346;52.006;4.720;2022-07-29T06:25:51;1.87;;;1.67;;
18435;SDS011;9346;52.006;4.720;2022-07-29T06:28:19;2.90;;;1.57;;
18435;SDS011;9346;52.006;4.720;2022-07-29T06:30:47;1.60;;;1.50;;
18435;SDS011;9346;52.006;4.720;2022-07-29T06:33:17;2.33;;;1.70;;
18435;SDS011;9346;52.006;4.720;2022-07-29T06:35:44;2.13;;;1.60;;
18435;SDS011;9346;52.006;4.720;2022-07-29T06:38:12;2.97;;;2.20;;
18435;SDS011;9346;52.006;4.720;2022-07-29T06:40:40;1.80;;;1.50;;
18435;SDS011;9346;52.006;4.720;2022-07-29T06:43:26;2.30;;;1.60;;
18435;SDS011;9346;52.006;4.720;2022-07-29T06:45:56;1.70;;;1.60;;
18435;SDS011;9346;52.006;4.720;2022-07-29T06:48:24;2.97;;;1.67;;
18435;SDS011;9346;52.006;4.720;2022-07-29T06:50:51;1.57;;;1.40;;
18435;SDS011;9346;52.006;4.720;2022-07-29T06:53:18;2.43;;;1.40;;
18435;SDS011;9346;52.006;4.720;2022-07-29T06:55:45;1.83;;;1.63;;
18435;SDS011;9346;52.006;4.720;2022-07-29T06:58:12;2.77;;;1.60;;
18435;SDS011;9346;52.006;4.720;2022-07-29T07:00:40;2.30;;;1.50;;
18435;SDS011;9346;52.006;4.720;2022-07-29T07:03:09;2.53;;;1.93;;
18435;SDS011;9346;52.006;4.720;2022-07-29T07:05:35;3.27;;;1.67;;
18435;SDS011;9346;52.006;4.720;2022-07-29T07:08:03;2.97;;;1.53;;
18435;SDS011;9346;52.006;4.720;2022-07-29T07:10:30;2.60;;;1.80;;
18435;SDS011;9346;52.006;4.720;2022-07-29T07:12:57;5.40;;;1.80;;
18435;SDS011;9346;52.006;4.720;2022-07-29T07:15:24;2.20;;;1.40;;
18435;SDS011;9346;52.006;4.720;2022-07-29T07:17:51;2.40;;;1.37;;
18435;SDS011;9346;52.006;4.720;2022-07-29T07:20:19;1.60;;;1.43;;
18435;SDS011;9346;52.006;4.720;2022-07-29T07:22:46;3.20;;;2.00;;
18435;SDS011;9346;52.006;4.720;2022-07-29T07:25:13;2.67;;;1.60;;
18435;SDS011;9346;52.006;4.720;2022-07-29T07:27:40;1.77;;;1.67;;
18435;SDS011;9346;52.006;4.720;2022-07-29T07:30:07;6.73;;;2.00;;
18435;SDS011;9346;52.006;4.720;2022-07-29T07:32:34;1.40;;;1.30;;
18435;SDS011;9346;52.006;4.720;2022-07-29T07:35:02;4.10;;;1.80;;
18435;SDS011;9346;52.006;4.720;2022-07-29T07:37:32;2.27;;;1.40;;
18435;SDS011;9346;52.006;4.720;2022-07-29T07:39:59;3.50;;;2.20;;
18435;SDS011;9346;52.006;4.720;2022-07-29T07:42:26;2.60;;;2.27;;
18435;SDS011;9346;52.006;4.720;2022-07-29T07:44:53;2.37;;;1.80;;
18435;SDS011;9346;52.006;4.720;2022-07-29T07:47:20;2.93;;;1.87;;
18435;SDS011;9346;52.006;4.720;2022-07-29T07:49:50;3.40;;;1.83;;
18435;SDS011;9346;52.006;4.720;2022-07-29T07:52:18;1.93;;;1.50;;
18435;SDS011;9346;52.006;4.720;2022-07-29T07:54:48;2.03;;;1.83;;
18435;SDS011;9346;52.006;4.720;2022-07-29T07:57:15;2.70;;;1.83;;
18435;SDS011;9346;52.006;4.720;2022-07-29T07:59:42;2.63;;;1.67;;
18435;SDS011;9346;52.006;4.720;2022-07-29T08:02:09;1.70;;;1.60;;
18435;SDS011;9346;52.006;4.720;2022-07-29T08:04:36;2.43;;;1.70;;
18435;SDS011;9346;52.006;4.720;2022-07-29T08:07:05;2.10;;;1.63;;
18435;SDS011;9346;52.006;4.720;2022-07-29T08:09:33;2.30;;;1.60;;
18435;SDS011;9346;52.006;4.720;2022-07-29T08:12:01;1.53;;;1.30;;
18435;SDS011;9346;52.006;4.720;2022-07-29T08:14:30;3.50;;;2.03;;
18435;SDS011;9346;52.006;4.720;2022-07-29T08:16:58;2.77;;;1.67;;
18435;SDS011;9346;52.006;4.720;2022-07-29T08:19:24;3.00;;;1.80;;
18435;SDS011;9346;52.006;4.720;2022-07-29T08:21:52;2.03;;;1.63;;
18435;SDS011;9346;52.006;4.720;2022-07-29T08:24:19;6.47;;;1.80;;
18435;SDS011;9346;52.006;4.720;2022-07-29T08:29:59;1.67;;;1.53;;
18435;SDS011;9346;52.006;4.720;2022-07-29T08:32:26;2.30;;;1.90;;
18435;SDS011;9346;52.006;4.720;2022-07-29T08:34:53;1.80;;;1.63;;
18435;SDS011;9346;52.006;4.720;2022-07-29T08:37:20;2.23;;;1.97;;
18435;SDS011;9346;52.006;4.720;2022-07-29T08:39:47;2.37;;;2.10;;
18435;SDS011;9346;52.006;4.720;2022-07-29T08:42:14;1.63;;;1.53;;
18435;SDS011;9346;52.006;4.720;2022-07-29T08:44:43;2.07;;;1.80;;
18435;SDS011;9346;52.006;4.720;2022-07-29T08:47:10;3.80;;;1.97;;
18435;SDS011;9346;52.006;4.720;2022-07-29T08:49:40;1.80;;;1.57;;
18435;SDS011;9346;52.006;4.720;2022-07-29T08:52:09;1.73;;;1.60;;
18435;SDS011;9346;52.006;4.720;2022-07-29T08:54:37;3.90;;;1.83;;
18435;SDS011;9346;52.006;4.720;2022-07-29T08:57:05;1.50;;;1.40;;
18435;SDS011;9346;52.006;4.720;2022-07-29T08:59:33;3.50;;;1.87;;
18435;SDS011;9346;52.006;4.720;2022-07-29T09:02:03;5.60;;;1.73;;
18435;SDS011;9346;52.006;4.720;2022-07-29T09:04:30;3.10;;;2.30;;
18435;SDS011;9346;52.006;4.720;2022-07-29T09:07:00;2.30;;;1.80;;
18435;SDS011;9346;52.006;4.720;2022-07-29T09:09:32;2.00;;;1.53;;
18435;SDS011;9346;52.006;4.720;2022-07-29T09:12:00;2.80;;;2.10;;
18435;SDS011;9346;52.006;4.720;2022-07-29T09:14:28;2.27;;;1.70;;
18435;SDS011;9346;52.006;4.720;2022-07-29T09:16:56;1.97;;;1.67;;
18435;SDS011;9346;52.006;4.720;2022-07-29T09:19:25;2.23;;;1.90;;
18435;SDS011;9346;52.006;4.720;2022-07-29T09:21:54;2.33;;;1.90;;
18435;SDS011;9346;52.006;4.720;2022-07-29T09:24:23;1.80;;;1.70;;
18435;SDS011;9346;52.006;4.720;2022-07-29T09:26:51;2.30;;;1.70;;
18435;SDS011;9346;52.006;4.720;2022-07-29T09:29:18;2.30;;;1.90;;
18435;SDS011;9346;52.006;4.720;2022-07-29T09:31:47;5.33;;;1.90;;
18435;SDS011;9346;52.006;4.720;2022-07-29T09:34:16;2.63;;;1.83;;
18435;SDS011;9346;52.006;4.720;2022-07-29T09:36:50;1.90;;;1.43;;
18435;SDS011;9346;52.006;4.720;2022-07-29T09:39:26;2.00;;;1.70;;
18435;SDS011;9346;52.006;4.720;2022-07-29T09:41:54;2.53;;;1.73;;
18435;SDS011;9346;52.006;4.720;2022-07-29T09:44:24;3.07;;;1.80;;
18435;SDS011;9346;52.006;4.720;2022-07-29T09:47:01;2.17;;;1.67;;
18435;SDS011;9346;52.006;4.720;2022-07-29T09:49:31;2.17;;;1.73;;
18435;SDS011;9346;52.006;4.720;2022-07-29T09:52:03;4.90;;;1.70;;
18435;SDS011;9346;52.006;4.720;2022-07-29T09:54:32;2.27;;;1.77;;
18435;SDS011;9346;52.006;4.720;2022-07-29T09:57:05;1.97;;;1.77;;
18435;SDS011;9346;52.006;4.720;2022-07-29T09:59:37;2.60;;;1.70;;
18435;SDS011;9346;52.006;4.720;2022-07-29T10:02:11;2.23;;;1.70;;
18435;SDS011;9346;52.006;4.720;2022-07-29T10:04:39;2.83;;;1.67;;
18435;SDS011;9346;52.006;4.720;2022-07-29T10:07:10;2.50;;;1.63;;
18435;SDS011;9346;52.006;4.720;2022-07-29T10:09:37;2.80;;;1.70;;
18435;SDS011;9346;52.006;4.720;2022-07-29T10:12:08;2.28;;;1.80;;
18435;SDS011;9346;52.006;4.720;2022-07-29T10:14:38;2.10;;;1.87;;
18435;SDS011;9346;52.006;4.720;2022-07-29T10:17:06;3.67;;;2.00;;
18435;SDS011;9346;52.006;4.720;2022-07-29T10:19:35;2.60;;;2.00;;
18435;SDS011;9346;52.006;4.720;2022-07-29T10:22:05;2.30;;;1.80;;
18435;SDS011;9346;52.006;4.720;2022-07-29T10:24:35;1.40;;;1.30;;
18435;SDS011;9346;52.006;4.720;2022-07-29T10:27:04;2.00;;;1.60;;
18435;SDS011;9346;52.006;4.720;2022-07-29T10:29:33;2.60;;;1.50;;
18435;SDS011;9346;52.006;4.720;2022-07-29T10:32:09;4.93;;;2.10;;
18435;SDS011;9346;52.006;4.720;2022-07-29T10:35:00;1.87;;;1.67;;
18435;SDS011;9346;52.006;4.720;2022-07-29T10:37:37;3.17;;;1.57;;
18435;SDS011;9346;52.006;4.720;2022-07-29T10:40:26;1.60;;;1.50;;
18435;SDS011;9346;52.006;4.720;2022-07-29T10:43:17;3.03;;;1.50;;
18435;SDS011;9346;52.006;4.720;2022-07-29T10:45:48;1.93;;;1.60;;
18435;SDS011;9346;52.006;4.720;2022-07-29T10:48:21;1.93;;;1.30;;
18435;SDS011;9346;52.006;4.720;2022-07-29T10:50:52;1.93;;;1.37;;
18435;SDS011;9346;52.006;4.720;2022-07-29T10:53:20;1.47;;;1.30;;
18435;SDS011;9346;52.006;4.720;2022-07-29T10:55:50;2.80;;;1.40;;
18435;SDS011;9346;52.006;4.720;2022-07-29T10:58:18;2.90;;;1.50;;
18435;SDS011;9346;52.006;4.720;2022-07-29T11:00:48;3.23;;;1.70;;
18435;SDS011;9346;52.006;4.720;2022-07-29T11:06:08;3.00;;;1.47;;
18435;SDS011;9346;52.006;4.720;2022-07-29T11:08:35;5.57;;;1.80;;
18435;SDS011;9346;52.006;4.720;2022-07-29T11:14:05;1.70;;;1.60;;
18435;SDS011;9346;52.006;4.720;2022-07-29T11:19:28;1.40;;;1.30;;
18435;SDS011;9346;52.006;4.720;2022-07-29T11:21:56;1.63;;;1.37;;
18435;SDS011;9346;52.006;4.720;2022-07-29T11:24:23;4.47;;;1.80;;
18435;SDS011;9346;52.006;4.720;2022-07-29T11:27:11;3.20;;;1.63;;
18435;SDS011;9346;52.006;4.720;2022-07-29T11:29:40;2.27;;;1.50;;
18435;SDS011;9346;52.006;4.720;2022-07-29T11:32:15;1.70;;;1.20;;
18435;SDS011;9346;52.006;4.720;2022-07-29T11:34:45;1.47;;;1.17;;
18435;SDS011;9346;52.006;4.720;2022-07-29T11:37:16;2.50;;;1.50;;
18435;SDS011;9346;52.006;4.720;2022-07-29T11:39:46;2.17;;;1.30;;
18435;SDS011;9346;52.006;4.720;2022-07-29T11:45:06;2.43;;;1.27;;
18435;SDS011;9346;52.006;4.720;2022-07-29T11:47:36;1.93;;;1.17;;
18435;SDS011;9346;52.006;4.720;2022-07-29T11:50:06;3.00;;;1.40;;
18435;SDS011;9346;52.006;4.720;2022-07-29T11:52:36;2.60;;;1.90;;
18435;SDS011;9346;52.006;4.720;2022-07-29T11:55:08;2.10;;;1.70;;
18435;SDS011;9346;52.006;4.720;2022-07-29T11:57:49;1.70;;;1.60;;
18435;SDS011;9346;52.006;4.720;2022-07-29T12:00:21;2.57;;;1.47;;
18435;SDS011;9346;52.006;4.720;2022-07-29T12:02:50;1.80;;;1.33;;
18435;SDS011;9346;52.006;4.720;2022-07-29T12:05:17;2.27;;;1.50;;
18435;SDS011;9346;52.006;4.720;2022-07-29T12:07:44;2.03;;;1.30;;
18435;SDS011;9346;52.006;4.720;2022-07-29T12:10:11;1.80;;;1.50;;
18435;SDS011;9346;52.006;4.720;2022-07-29T12:12:38;2.10;;;1.47;;
18435;SDS011;9346;52.006;4.720;2022-07-29T12:15:17;1.37;;;1.20;;
18435;SDS011;9346;52.006;4.720;2022-07-29T12:17:45;1.90;;;1.33;;
18435;SDS011;9346;52.006;4.720;2022-07-29T12:20:13;1.80;;;1.30;;
18435;SDS011;9346;52.006;4.720;2022-07-29T12:22:48;1.70;;;1.53;;
18435;SDS011;9346;52.006;4.720;2022-07-29T12:25:15;4.20;;;1.97;;
18435;SDS011;9346;52.006;4.720;2022-07-29T12:27:43;1.50;;;1.40;;
18435;SDS011;9346;52.006;4.720;2022-07-29T12:30:11;6.57;;;1.53;;
18435;SDS011;9346;52.006;4.720;2022-07-29T12:32:42;1.80;;;1.63;;
18435;SDS011;9346;52.006;4.720;2022-07-29T12:35:11;2.50;;;1.00;;
18435;SDS011;9346;52.006;4.720;2022-07-29T12:37:39;1.63;;;1.40;;
18435;SDS011;9346;52.006;4.720;2022-07-29T12:40:08;1.10;;;1.00;;
18435;SDS011;9346;52.006;4.720;2022-07-29T12:42:36;2.00;;;1.27;;
18435;SDS011;9346;52.006;4.720;2022-07-29T12:45:04;1.30;;;1.07;;
18435;SDS011;9346;52.006;4.720;2022-07-29T12:47:32;1.37;;;1.00;;
18435;SDS011;9346;52.006;4.720;2022-07-29T12:50:11;1.30;;;0.93;;
18435;SDS011;9346;52.006;4.720;2022-07-29T12:52:42;2.53;;;1.47;;
18435;SDS011;9346;52.006;4.720;2022-07-29T12:55:11;2.63;;;1.33;;
18435;SDS011;9346;52.006;4.720;2022-07-29T12:57:44;1.50;;;1.30;;
18435;SDS011;9346;52.006;4.720;2022-07-29T13:00:13;2.17;;;1.20;;
18435;SDS011;9346;52.006;4.720;2022-07-29T13:02:41;1.90;;;1.27;;
18435;SDS011;9346;52.006;4.720;2022-07-29T13:05:10;2.03;;;1.00;;
18435;SDS011;9346;52.006;4.720;2022-07-29T13:07:37;2.17;;;1.40;;
18435;SDS011;9346;52.006;4.720;2022-07-29T13:10:12;3.17;;;1.27;;
18435;SDS011;9346;52.006;4.720;2022-07-29T13:15:30;1.47;;;1.17;;
18435;SDS011;9346;52.006;4.720;2022-07-29T13:17:58;3.87;;;1.37;;
18435;SDS011;9346;52.006;4.720;2022-07-29T13:20:28;1.17;;;1.07;;
18435;SDS011;9346;52.006;4.720;2022-07-29T13:22:57;1.60;;;1.00;;
18435;SDS011;9346;52.006;4.720;2022-07-29T13:25:25;2.90;;;1.40;;
18435;SDS011;9346;52.006;4.720;2022-07-29T13:27:54;2.00;;;1.40;;
18435;SDS011;9346;52.006;4.720;2022-07-29T13:30:21;1.50;;;1.37;;
18435;SDS011;9346;52.006;4.720;2022-07-29T13:32:49;2.40;;;1.57;;
18435;SDS011;9346;52.006;4.720;2022-07-29T13:35:18;2.57;;;1.73;;
18435;SDS011;9346;52.006;4.720;2022-07-29T13:37:47;1.80;;;1.27;;
18435;SDS011;9346;52.006;4.720;2022-07-29T13:40:14;2.20;;;1.40;;
18435;SDS011;9346;52.006;4.720;2022-07-29T13:42:41;2.40;;;1.57;;
18435;SDS011;9346;52.006;4.720;2022-07-29T13:45:09;1.60;;;1.50;;
18435;SDS011;9346;52.006;4.720;2022-07-29T13:47:37;1.30;;;1.20;;
18435;SDS011;9346;52.006;4.720;2022-07-29T13:50:07;1.20;;;1.10;;
18435;SDS011;9346;52.006;4.720;2022-07-29T13:52:35;2.50;;;1.50;;
18435;SDS011;9346;52.006;4.720;2022-07-29T13:55:07;2.07;;;1.40;;
18435;SDS011;9346;52.006;4.720;2022-07-29T13:57:34;2.50;;;1.70;;
18435;SDS011;9346;52.006;4.720;2022-07-29T14:00:01;2.33;;;1.50;;
18435;SDS011;9346;52.006;4.720;2022-07-29T14:02:28;5.10;;;1.53;;
18435;SDS011;9346;52.006;4.720;2022-07-29T14:04:54;1.53;;;1.20;;
18435;SDS011;9346;52.006;4.720;2022-07-29T14:07:22;1.93;;;1.20;;
18435;SDS011;9346;52.006;4.720;2022-07-29T14:09:49;3.43;;;1.30;;
18435;SDS011;9346;52.006;4.720;2022-07-29T14:12:18;1.23;;;1.10;;
18435;SDS011;9346;52.006;4.720;2022-07-29T14:14:44;10.50;;;1.37;;
18435;SDS011;9346;52.006;4.720;2022-07-29T14:17:11;1.60;;;1.03;;
18435;SDS011;9346;52.006;4.720;2022-07-29T14:19:38;3.70;;;1.65;;
18435;SDS011;9346;52.006;4.720;2022-07-29T14:22:07;2.37;;;1.30;;
18435;SDS011;9346;52.006;4.720;2022-07-29T14:24:35;2.00;;;1.80;;
18435;SDS011;9346;52.006;4.720;2022-07-29T14:27:03;3.23;;;1.23;;
18435;SDS011;9346;52.006;4.720;2022-07-29T14:29:31;2.23;;;1.13;;
18435;SDS011;9346;52.006;4.720;2022-07-29T14:31:58;1.52;;;1.27;;
18435;SDS011;9346;52.006;4.720;2022-07-29T14:34:25;1.25;;;1.00;;
18435;SDS011;9346;52.006;4.720;2022-07-29T14:36:52;1.80;;;1.10;;
18435;SDS011;9346;52.006;4.720;2022-07-29T14:39:22;1.40;;;1.05;;
18435;SDS011;9346;52.006;4.720;2022-07-29T14:41:49;1.23;;;1.13;;
18435;SDS011;9346;52.006;4.720;2022-07-29T14:44:16;7.90;;;1.52;;
18435;SDS011;9346;52.006;4.720;2022-07-29T14:46:45;1.67;;;1.00;;
18435;SDS011;9346;52.006;4.720;2022-07-29T14:49:12;2.25;;;0.90;;
18435;SDS011;9346;52.006;4.720;2022-07-29T14:51:39;2.63;;;1.20;;
18435;SDS011;9346;52.006;4.720;2022-07-29T14:54:06;1.83;;;1.07;;
18435;SDS011;9346;52.006;4.720;2022-07-29T14:56:33;1.63;;;1.00;;
18435;SDS011;9346;52.006;4.720;2022-07-29T14:59:00;1.40;;;1.10;;
18435;SDS011;9346;52.006;4.720;2022-07-29T15:01:27;1.50;;;1.23;;
18435;SDS011;9346;52.006;4.720;2022-07-29T15:03:55;1.30;;;1.20;;
18435;SDS011;9346;52.006;4.720;2022-07-29T15:06:22;1.08;;;0.98;;
18435;SDS011;9346;52.006;4.720;2022-07-29T15:08:49;1.48;;;0.90;;
18435;SDS011;9346;52.006;4.720;2022-07-29T15:11:16;1.97;;;1.10;;
18435;SDS011;9346;52.006;4.720;2022-07-29T15:13:42;2.17;;;1.20;;
18435;SDS011;9346;52.006;4.720;2022-07-29T15:16:09;3.00;;;1.10;;
18435;SDS011;9346;52.006;4.720;2022-07-29T15:18:36;1.57;;;1.10;;
18435;SDS011;9346;52.006;4.720;2022-07-29T15:21:05;1.63;;;1.10;;
18435;SDS011;9346;52.006;4.720;2022-07-29T15:23:33;1.83;;;1.15;;
18435;SDS011;9346;52.006;4.720;2022-07-29T15:26:01;2.80;;;1.23;;
18435;SDS011;9346;52.006;4.720;2022-07-29T15:28:28;1.10;;;1.00;;
18435;SDS011;9346;52.006;4.720;2022-07-29T15:30:55;1.30;;;1.20;;